PWSweather.com
Personal Weather Stations
Station Observations
WD4JKH
Forsyth, GA 31029

Forsyth, GA 31029

Lat: 33.033225, Lon: -83.927995

Elevation: 709

Station Type: Davis Vantage VUE

High Low Average
Temperature 90.2°F32.3°C 71.4°F21.9°C 77.6°F25.3°C
Dew Point 79.1°F26.2°C 70.2°F21.2°C 73.4°F23.0°C
Winds 6.5 mph 10.5 kmh Calm Calm 2.0 mph WSW3.2 kmh WSW
Wind Gusts 16.0 mph25.7 kmh -- 5.0 mph8.0 kmh
Humidity 97% 60% 87%
Pressure 30.10 in1019.3 mb 30.00 in1015.9 mb -
Precipitation 0.07 in1.8 mm - -
Hour Temp Dew Point Humidity Winds Wind Gusts Pressure Precip Precip Rate Daily Precip Total
12:03 AM 75.1°F23.9°C 73.2°F22.9°C 94% 1.0 mph SW1.6 kmh SW 5.0 mph8.0 kmh 30.05 in1017.6 mb 0.00 in0.0 mm 0.00 in0.0 mm 0.85 in21.6 mm
12:08 AM 75.0°F23.9°C 73.1°F22.8°C 94% 1.0 mph SSE1.6 kmh SSE 4.0 mph6.4 kmh 30.05 in1017.6 mb 0.00 in0.0 mm 0.00 in0.0 mm 0.00 in0.0 mm
12:13 AM 74.9°F23.8°C 73.0°F22.8°C 94% 1.4 mph SW2.3 kmh SW 3.0 mph4.8 kmh 30.05 in1017.6 mb 0.00 in0.0 mm 0.00 in0.0 mm 0.00 in0.0 mm
12:18 AM 74.7°F23.7°C 73.1°F22.8°C 95% Calm Calm 3.0 mph4.8 kmh 30.05 in1017.6 mb 0.00 in0.0 mm 0.00 in0.0 mm 0.00 in0.0 mm
12:23 AM 74.6°F23.7°C 73.0°F22.8°C 95% 1.1 mph SW1.8 kmh SW 3.0 mph4.8 kmh 30.05 in1017.6 mb 0.00 in0.0 mm 0.00 in0.0 mm 0.00 in0.0 mm
12:28 AM 74.5°F23.6°C 73.0°F22.8°C 95% 1.0 mph SW1.6 kmh SW 3.0 mph4.8 kmh 30.05 in1017.6 mb 0.00 in0.0 mm 0.00 in0.0 mm 0.00 in0.0 mm
12:33 AM 74.4°F23.6°C 72.8°F22.7°C 95% 1.0 mph SW1.6 kmh SW 2.0 mph3.2 kmh 30.05 in1017.6 mb 0.00 in0.0 mm 0.00 in0.0 mm 0.00 in0.0 mm
12:38 AM 74.3°F23.5°C 72.7°F22.6°C 95% 1.8 mph SW2.9 kmh SW 4.0 mph6.4 kmh 30.05 in1017.6 mb 0.00 in0.0 mm 0.00 in0.0 mm 0.00 in0.0 mm
12:43 AM 74.2°F23.4°C 72.6°F22.6°C 95% 1.3 mph SW2.1 kmh SW 4.0 mph6.4 kmh 30.04 in1017.3 mb 0.00 in0.0 mm 0.00 in0.0 mm 0.00 in0.0 mm
12:48 AM 74.2°F23.4°C 72.6°F22.6°C 95% 1.0 mph SW1.6 kmh SW 4.0 mph6.4 kmh 30.04 in1017.3 mb 0.00 in0.0 mm 0.00 in0.0 mm 0.00 in0.0 mm
12:53 AM 74.2°F23.4°C 72.7°F22.6°C 95% 1.8 mph SW2.9 kmh SW 4.0 mph6.4 kmh 30.04 in1017.3 mb 0.00 in0.0 mm 0.00 in0.0 mm 0.00 in0.0 mm
12:58 AM 74.2°F23.4°C 72.6°F22.6°C 95% 1.0 mph SW1.6 kmh SW 4.0 mph6.4 kmh 30.04 in1017.3 mb 0.00 in0.0 mm 0.00 in0.0 mm 0.00 in0.0 mm
01:03 AM 74.2°F23.4°C 72.6°F22.6°C 95% 1.5 mph SW2.4 kmh SW 4.0 mph6.4 kmh 30.04 in1017.3 mb 0.00 in0.0 mm 0.00 in0.0 mm 0.00 in0.0 mm
01:08 AM 74.1°F23.4°C 72.5°F22.5°C 95% 1.7 mph SW2.7 kmh SW 4.0 mph6.4 kmh 30.05 in1017.6 mb 0.00 in0.0 mm 0.00 in0.0 mm 0.00 in0.0 mm
01:13 AM 74.0°F23.3°C 72.4°F22.4°C 95% 1.0 mph SW1.6 kmh SW 4.0 mph6.4 kmh 30.04 in1017.3 mb 0.00 in0.0 mm 0.00 in0.0 mm 0.00 in0.0 mm
01:18 AM 73.9°F23.3°C 72.3°F22.4°C 95% 1.4 mph SW2.3 kmh SW 4.0 mph6.4 kmh 30.04 in1017.3 mb 0.00 in0.0 mm 0.00 in0.0 mm 0.00 in0.0 mm
01:23 AM 73.8°F23.2°C 72.2°F22.3°C 95% 1.6 mph SW2.6 kmh SW 4.0 mph6.4 kmh 30.04 in1017.3 mb 0.00 in0.0 mm 0.00 in0.0 mm 0.00 in0.0 mm
01:28 AM 73.8°F23.2°C 72.2°F22.3°C 95% 1.4 mph SW2.3 kmh SW 4.0 mph6.4 kmh 30.03 in1016.9 mb 0.00 in0.0 mm 0.00 in0.0 mm 0.00 in0.0 mm
01:33 AM 73.8°F23.2°C 72.3°F22.4°C 95% 1.6 mph SW2.6 kmh SW 4.0 mph6.4 kmh 30.03 in1016.9 mb 0.00 in0.0 mm 0.00 in0.0 mm 0.00 in0.0 mm
01:38 AM 73.7°F23.2°C 72.1°F22.3°C 95% 1.8 mph SW2.9 kmh SW 4.0 mph6.4 kmh 30.03 in1016.9 mb 0.00 in0.0 mm 0.00 in0.0 mm 0.00 in0.0 mm
01:43 AM 73.7°F23.2°C 72.1°F22.3°C 95% 1.0 mph SW1.6 kmh SW 4.0 mph6.4 kmh 30.03 in1016.9 mb 0.00 in0.0 mm 0.00 in0.0 mm 0.00 in0.0 mm
01:48 AM 73.6°F23.1°C 72.0°F22.2°C 95% 1.0 mph SW1.6 kmh SW 4.0 mph6.4 kmh 30.03 in1016.9 mb 0.00 in0.0 mm 0.00 in0.0 mm 0.00 in0.0 mm
01:53 AM 73.6°F23.1°C 72.0°F22.2°C 95% 1.0 mph WSW1.6 kmh WSW 3.0 mph4.8 kmh 30.03 in1016.9 mb 0.00 in0.0 mm 0.00 in0.0 mm 0.00 in0.0 mm
01:58 AM 73.6°F23.1°C 72.0°F22.2°C 95% 1.1 mph SW1.8 kmh SW 3.0 mph4.8 kmh 30.03 in1016.9 mb 0.00 in0.0 mm 0.00 in0.0 mm 0.00 in0.0 mm
02:03 AM 73.6°F23.1°C 72.0°F22.2°C 95% 1.5 mph SW2.4 kmh SW 3.0 mph4.8 kmh 30.03 in1016.9 mb 0.00 in0.0 mm 0.00 in0.0 mm 0.00 in0.0 mm
02:08 AM 73.5°F23.1°C 71.9°F22.2°C 95% 1.1 mph WSW1.8 kmh WSW 3.0 mph4.8 kmh 30.03 in1016.9 mb 0.00 in0.0 mm 0.00 in0.0 mm 0.00 in0.0 mm
02:13 AM 73.5°F23.1°C 71.9°F22.2°C 95% Calm Calm 3.0 mph4.8 kmh 30.03 in1016.9 mb 0.00 in0.0 mm 0.00 in0.0 mm 0.00 in0.0 mm
02:18 AM 73.4°F23.0°C 71.9°F22.2°C 95% 1.0 mph WSW1.6 kmh WSW 3.0 mph4.8 kmh 30.03 in1016.9 mb 0.00 in0.0 mm 0.00 in0.0 mm 0.00 in0.0 mm
02:23 AM 73.3°F22.9°C 71.8°F22.1°C 95% 1.6 mph WSW2.6 kmh WSW 2.0 mph3.2 kmh 30.03 in1016.9 mb 0.00 in0.0 mm 0.00 in0.0 mm 0.00 in0.0 mm
02:28 AM 73.4°F23.0°C 71.9°F22.2°C 95% 1.3 mph SW2.1 kmh SW 2.0 mph3.2 kmh 30.03 in1016.9 mb 0.00 in0.0 mm 0.00 in0.0 mm 0.00 in0.0 mm
02:33 AM 73.3°F22.9°C 71.8°F22.1°C 95% 1.8 mph WSW2.9 kmh WSW 3.0 mph4.8 kmh 30.02 in1016.6 mb 0.00 in0.0 mm 0.00 in0.0 mm 0.00 in0.0 mm
02:38 AM 73.3°F22.9°C 71.8°F22.1°C 95% 1.0 mph SW1.6 kmh SW 3.0 mph4.8 kmh 30.02 in1016.6 mb 0.00 in0.0 mm 0.00 in0.0 mm 0.00 in0.0 mm
02:43 AM 73.3°F22.9°C 71.8°F22.1°C 95% 1.4 mph SW2.3 kmh SW 3.0 mph4.8 kmh 30.02 in1016.6 mb 0.00 in0.0 mm 0.00 in0.0 mm 0.00 in0.0 mm
02:48 AM 73.4°F23.0°C 71.9°F22.2°C 95% 1.0 mph WSW1.6 kmh WSW 3.0 mph4.8 kmh 30.02 in1016.6 mb 0.00 in0.0 mm 0.00 in0.0 mm 0.00 in0.0 mm
02:53 AM 73.4°F23.0°C 71.9°F22.2°C 95% 1.0 mph SW1.6 kmh SW 3.0 mph4.8 kmh 30.02 in1016.6 mb 0.00 in0.0 mm 0.00 in0.0 mm 0.00 in0.0 mm
02:58 AM 73.4°F23.0°C 71.9°F22.2°C 95% 1.0 mph WSW1.6 kmh WSW 3.0 mph4.8 kmh 30.02 in1016.6 mb 0.00 in0.0 mm 0.00 in0.0 mm 0.00 in0.0 mm
03:03 AM 73.4°F23.0°C 71.9°F22.2°C 95% 1.6 mph WSW2.6 kmh WSW 4.0 mph6.4 kmh 30.02 in1016.6 mb 0.00 in0.0 mm 0.00 in0.0 mm 0.00 in0.0 mm
03:08 AM 73.5°F23.1°C 71.9°F22.2°C 95% 1.2 mph SW1.9 kmh SW 4.0 mph6.4 kmh 30.02 in1016.6 mb 0.00 in0.0 mm 0.00 in0.0 mm 0.00 in0.0 mm
03:12 AM 73.5°F23.1°C 71.9°F22.2°C 95% 2.0 mph SW3.2 kmh SW 4.0 mph6.4 kmh 30.01 in1016.3 mb 0.00 in0.0 mm 0.00 in0.0 mm 0.00 in0.0 mm
03:17 AM 73.5°F23.1°C 71.6°F22.0°C 94% 1.6 mph WSW2.6 kmh WSW 4.0 mph6.4 kmh 30.01 in1016.3 mb 0.00 in0.0 mm 0.00 in0.0 mm 0.00 in0.0 mm
03:22 AM 73.5°F23.1°C 71.6°F22.0°C 94% 1.1 mph WSW1.8 kmh WSW 4.0 mph6.4 kmh 30.01 in1016.3 mb 0.00 in0.0 mm 0.00 in0.0 mm 0.00 in0.0 mm
03:27 AM 73.5°F23.1°C 71.6°F22.0°C 94% 2.1 mph SW3.4 kmh SW 4.0 mph6.4 kmh 30.01 in1016.3 mb 0.00 in0.0 mm 0.00 in0.0 mm 0.00 in0.0 mm
03:32 AM 73.5°F23.1°C 71.6°F22.0°C 94% 1.8 mph SW2.9 kmh SW 4.0 mph6.4 kmh 30.01 in1016.3 mb 0.00 in0.0 mm 0.00 in0.0 mm 0.00 in0.0 mm
03:37 AM 73.4°F23.0°C 71.5°F21.9°C 94% 1.8 mph WSW2.9 kmh WSW 4.0 mph6.4 kmh 30.01 in1016.3 mb 0.00 in0.0 mm 0.00 in0.0 mm 0.00 in0.0 mm
03:42 AM 73.4°F23.0°C 71.6°F22.0°C 94% 1.3 mph SW2.1 kmh SW 4.0 mph6.4 kmh 30.00 in1015.9 mb 0.00 in0.0 mm 0.00 in0.0 mm 0.00 in0.0 mm
03:47 AM 73.3°F22.9°C 71.8°F22.1°C 95% 1.3 mph WSW2.1 kmh WSW 4.0 mph6.4 kmh 30.00 in1015.9 mb 0.00 in0.0 mm 0.00 in0.0 mm 0.00 in0.0 mm
03:52 AM 73.4°F23.0°C 71.9°F22.2°C 95% 1.2 mph SW1.9 kmh SW 4.0 mph6.4 kmh 30.00 in1015.9 mb 0.00 in0.0 mm 0.00 in0.0 mm 0.00 in0.0 mm
03:57 AM 73.4°F23.0°C 71.9°F22.2°C 95% 2.0 mph WSW3.2 kmh WSW 4.0 mph6.4 kmh 30.00 in1015.9 mb 0.00 in0.0 mm 0.00 in0.0 mm 0.00 in0.0 mm
04:02 AM 73.4°F23.0°C 71.5°F21.9°C 94% 1.2 mph WSW1.9 kmh WSW 4.0 mph6.4 kmh 30.00 in1015.9 mb 0.00 in0.0 mm 0.00 in0.0 mm 0.00 in0.0 mm
04:07 AM 73.5°F23.1°C 71.6°F22.0°C 94% 1.4 mph WSW2.3 kmh WSW 4.0 mph6.4 kmh 30.00 in1015.9 mb 0.00 in0.0 mm 0.00 in0.0 mm 0.00 in0.0 mm
04:12 AM 73.6°F23.1°C 71.8°F22.1°C 94% 1.0 mph WSW1.6 kmh WSW 4.0 mph6.4 kmh 30.00 in1015.9 mb 0.00 in0.0 mm 0.00 in0.0 mm 0.00 in0.0 mm
04:17 AM 73.6°F23.1°C 71.7°F22.1°C 94% 1.0 mph SW1.6 kmh SW 3.0 mph4.8 kmh 30.00 in1015.9 mb 0.00 in0.0 mm 0.00 in0.0 mm 0.00 in0.0 mm
04:22 AM 73.5°F23.1°C 71.6°F22.0°C 94% 2.1 mph WSW3.4 kmh WSW 4.0 mph6.4 kmh 30.00 in1015.9 mb 0.00 in0.0 mm 0.00 in0.0 mm 0.00 in0.0 mm
04:27 AM 73.5°F23.1°C 71.6°F22.0°C 94% 1.2 mph SW1.9 kmh SW 4.0 mph6.4 kmh 30.00 in1015.9 mb 0.00 in0.0 mm 0.00 in0.0 mm 0.00 in0.0 mm
04:32 AM 73.4°F23.0°C 71.5°F21.9°C 94% 1.7 mph SW2.7 kmh SW 4.0 mph6.4 kmh 30.00 in1015.9 mb 0.00 in0.0 mm 0.00 in0.0 mm 0.00 in0.0 mm
04:37 AM 73.4°F23.0°C 71.5°F21.9°C 94% 1.4 mph WSW2.3 kmh WSW 4.0 mph6.4 kmh 30.00 in1015.9 mb 0.00 in0.0 mm 0.00 in0.0 mm 0.00 in0.0 mm
04:42 AM 73.3°F22.9°C 71.4°F21.9°C 94% 1.7 mph WSW2.7 kmh WSW 4.0 mph6.4 kmh 30.00 in1015.9 mb 0.00 in0.0 mm 0.00 in0.0 mm 0.00 in0.0 mm
04:47 AM 73.3°F22.9°C 71.8°F22.1°C 95% 1.3 mph WSW2.1 kmh WSW 4.0 mph6.4 kmh 30.00 in1015.9 mb 0.00 in0.0 mm 0.00 in0.0 mm 0.00 in0.0 mm
04:52 AM 73.3°F22.9°C 71.8°F22.1°C 95% 1.3 mph WSW2.1 kmh WSW 4.0 mph6.4 kmh 30.01 in1016.3 mb 0.00 in0.0 mm 0.00 in0.0 mm 0.00 in0.0 mm
04:57 AM 73.3°F22.9°C 71.8°F22.1°C 95% 1.0 mph SW1.6 kmh SW 4.0 mph6.4 kmh 30.01 in1016.3 mb 0.00 in0.0 mm 0.00 in0.0 mm 0.00 in0.0 mm
05:02 AM 73.3°F22.9°C 71.8°F22.1°C 95% 1.0 mph SW1.6 kmh SW 3.0 mph4.8 kmh 30.01 in1016.3 mb 0.00 in0.0 mm 0.00 in0.0 mm 0.00 in0.0 mm
05:07 AM 73.3°F22.9°C 71.8°F22.1°C 95% 1.3 mph WSW2.1 kmh WSW 3.0 mph4.8 kmh 30.01 in1016.3 mb 0.00 in0.0 mm 0.00 in0.0 mm 0.00 in0.0 mm
05:12 AM 73.3°F22.9°C 71.8°F22.1°C 95% 1.0 mph SW1.6 kmh SW 3.0 mph4.8 kmh 30.01 in1016.3 mb 0.00 in0.0 mm 0.00 in0.0 mm 0.00 in0.0 mm
05:17 AM 73.2°F22.9°C 71.7°F22.1°C 95% 1.0 mph SW1.6 kmh SW 3.0 mph4.8 kmh 30.01 in1016.3 mb 0.00 in0.0 mm 0.00 in0.0 mm 0.00 in0.0 mm
05:22 AM 73.2°F22.9°C 71.7°F22.1°C 95% 1.0 mph SW1.6 kmh SW 2.0 mph3.2 kmh 30.02 in1016.6 mb 0.00 in0.0 mm 0.00 in0.0 mm 0.00 in0.0 mm
05:27 AM 73.2°F22.9°C 71.7°F22.1°C 95% 1.0 mph WSW1.6 kmh WSW 2.0 mph3.2 kmh 30.02 in1016.6 mb 0.00 in0.0 mm 0.00 in0.0 mm 0.00 in0.0 mm
05:32 AM 73.2°F22.9°C 71.7°F22.1°C 95% 1.9 mph W3.1 kmh W 4.0 mph6.4 kmh 30.02 in1016.6 mb 0.00 in0.0 mm 0.00 in0.0 mm 0.00 in0.0 mm
05:37 AM 73.3°F22.9°C 71.8°F22.1°C 95% 1.0 mph WSW1.6 kmh WSW 4.0 mph6.4 kmh 30.02 in1016.6 mb 0.00 in0.0 mm 0.00 in0.0 mm 0.00 in0.0 mm
05:42 AM 73.4°F23.0°C 71.9°F22.2°C 95% 1.2 mph W1.9 kmh W 4.0 mph6.4 kmh 30.02 in1016.6 mb 0.00 in0.0 mm 0.00 in0.0 mm 0.00 in0.0 mm
05:47 AM 73.5°F23.1°C 71.6°F22.0°C 94% 1.1 mph WSW1.8 kmh WSW 4.0 mph6.4 kmh 30.02 in1016.6 mb 0.00 in0.0 mm 0.00 in0.0 mm 0.00 in0.0 mm
05:52 AM 73.5°F23.1°C 71.6°F22.0°C 94% 1.2 mph W1.9 kmh W 3.0 mph4.8 kmh 30.02 in1016.6 mb 0.00 in0.0 mm 0.00 in0.0 mm 0.00 in0.0 mm
05:57 AM 73.5°F23.1°C 71.6°F22.0°C 94% 1.1 mph WSW1.8 kmh WSW 3.0 mph4.8 kmh 30.02 in1016.6 mb 0.00 in0.0 mm 0.00 in0.0 mm 0.00 in0.0 mm
06:02 AM 73.6°F23.1°C 71.7°F22.1°C 94% 1.0 mph W1.6 kmh W 3.0 mph4.8 kmh 30.02 in1016.6 mb 0.00 in0.0 mm 0.00 in0.0 mm 0.00 in0.0 mm
06:07 AM 73.7°F23.2°C 71.8°F22.1°C 94% 1.6 mph W2.6 kmh W 3.0 mph4.8 kmh 30.02 in1016.6 mb 0.00 in0.0 mm 0.00 in0.0 mm 0.00 in0.0 mm
06:12 AM 73.7°F23.2°C 71.8°F22.1°C 94% 1.5 mph WSW2.4 kmh WSW 3.0 mph4.8 kmh 30.02 in1016.6 mb 0.00 in0.0 mm 0.00 in0.0 mm 0.00 in0.0 mm
06:17 AM 73.7°F23.2°C 71.9°F22.2°C 94% 1.3 mph WSW2.1 kmh WSW 4.0 mph6.4 kmh 30.02 in1016.6 mb 0.00 in0.0 mm 0.00 in0.0 mm 0.00 in0.0 mm
06:22 AM 73.6°F23.1°C 71.8°F22.1°C 94% 1.9 mph WSW3.1 kmh WSW 4.0 mph6.4 kmh 30.03 in1016.9 mb 0.00 in0.0 mm 0.00 in0.0 mm 0.00 in0.0 mm
06:27 AM 73.6°F23.1°C 71.8°F22.1°C 94% 1.0 mph WSW1.6 kmh WSW 4.0 mph6.4 kmh 30.03 in1016.9 mb 0.00 in0.0 mm 0.00 in0.0 mm 0.00 in0.0 mm
06:32 AM 73.6°F23.1°C 71.8°F22.1°C 94% 1.2 mph W1.9 kmh W 4.0 mph6.4 kmh 30.03 in1016.9 mb 0.00 in0.0 mm 0.00 in0.0 mm 0.00 in0.0 mm
06:37 AM 73.6°F23.1°C 71.8°F22.1°C 94% 1.2 mph WSW1.9 kmh WSW 4.0 mph6.4 kmh 30.03 in1016.9 mb 0.00 in0.0 mm 0.00 in0.0 mm 0.00 in0.0 mm
06:42 AM 73.7°F23.2°C 71.5°F21.9°C 93% 1.0 mph W1.6 kmh W 2.0 mph3.2 kmh 30.03 in1016.9 mb 0.00 in0.0 mm 0.00 in0.0 mm 0.00 in0.0 mm
06:47 AM 73.8°F23.2°C 71.6°F22.0°C 93% 1.5 mph W2.4 kmh W 4.0 mph6.4 kmh 30.03 in1016.9 mb 0.00 in0.0 mm 0.00 in0.0 mm 0.00 in0.0 mm
06:52 AM 74.0°F23.3°C 71.5°F21.9°C 92% 1.2 mph W1.9 kmh W 4.0 mph6.4 kmh 30.03 in1016.9 mb 0.00 in0.0 mm 0.00 in0.0 mm 0.00 in0.0 mm
06:57 AM 74.2°F23.4°C 71.7°F22.1°C 92% 1.0 mph WSW1.6 kmh WSW 4.0 mph6.4 kmh 30.03 in1016.9 mb 0.00 in0.0 mm 0.00 in0.0 mm 0.00 in0.0 mm
07:02 AM 74.4°F23.6°C 71.9°F22.2°C 92% 1.6 mph W2.6 kmh W 4.0 mph6.4 kmh 30.03 in1016.9 mb 0.00 in0.0 mm 0.00 in0.0 mm 0.00 in0.0 mm
07:07 AM 74.5°F23.6°C 71.7°F22.1°C 91% 1.0 mph W1.6 kmh W 3.0 mph4.8 kmh 30.04 in1017.3 mb 0.00 in0.0 mm 0.00 in0.0 mm 0.00 in0.0 mm
07:12 AM 74.6°F23.7°C 71.8°F22.1°C 91% 1.2 mph W1.9 kmh W 3.0 mph4.8 kmh 30.04 in1017.3 mb 0.00 in0.0 mm 0.00 in0.0 mm 0.00 in0.0 mm
07:17 AM 74.8°F23.8°C 72.0°F22.2°C 91% 1.2 mph W1.9 kmh W 3.0 mph4.8 kmh 30.04 in1017.3 mb 0.00 in0.0 mm 0.00 in0.0 mm 0.00 in0.0 mm
07:22 AM 74.9°F23.8°C 71.8°F22.1°C 90% 1.0 mph WNW1.6 kmh WNW 3.0 mph4.8 kmh 30.04 in1017.3 mb 0.00 in0.0 mm 0.00 in0.0 mm 0.00 in0.0 mm
07:27 AM 74.9°F23.8°C 71.8°F22.1°C 90% 1.0 mph W1.6 kmh W 3.0 mph4.8 kmh 30.04 in1017.3 mb 0.00 in0.0 mm 0.00 in0.0 mm 0.00 in0.0 mm
07:32 AM 75.0°F23.9°C 71.9°F22.2°C 90% 1.0 mph W1.6 kmh W 2.0 mph3.2 kmh 30.04 in1017.3 mb 0.00 in0.0 mm 0.00 in0.0 mm 0.00 in0.0 mm
07:37 AM 75.0°F23.9°C 71.9°F22.2°C 90% Calm Calm 2.0 mph3.2 kmh 30.05 in1017.6 mb 0.00 in0.0 mm 0.00 in0.0 mm 0.00 in0.0 mm
07:42 AM 75.1°F23.9°C 72.0°F22.2°C 90% 1.0 mph W1.6 kmh W 2.0 mph3.2 kmh 30.05 in1017.6 mb 0.00 in0.0 mm 0.00 in0.0 mm 0.00 in0.0 mm
07:47 AM 75.2°F24.0°C 72.1°F22.3°C 90% 1.0 mph W1.6 kmh W 1.0 mph1.6 kmh 30.05 in1017.6 mb 0.00 in0.0 mm 0.00 in0.0 mm 0.00 in0.0 mm
07:52 AM 75.4°F24.1°C 72.3°F22.4°C 90% Calm Calm 1.0 mph1.6 kmh 30.05 in1017.6 mb 0.00 in0.0 mm 0.00 in0.0 mm 0.00 in0.0 mm
07:57 AM 75.5°F24.2°C 72.0°F22.2°C 89% 1.0 mph W1.6 kmh W 1.0 mph1.6 kmh 30.06 in1017.9 mb 0.00 in0.0 mm 0.00 in0.0 mm 0.00 in0.0 mm
08:02 AM 75.6°F24.2°C 72.1°F22.3°C 89% Calm Calm 1.0 mph1.6 kmh 30.06 in1017.9 mb 0.00 in0.0 mm 0.00 in0.0 mm 0.00 in0.0 mm
08:07 AM 75.8°F24.3°C 72.3°F22.4°C 89% Calm Calm 1.0 mph1.6 kmh 30.06 in1017.9 mb 0.00 in0.0 mm 0.00 in0.0 mm 0.00 in0.0 mm
08:12 AM 76.0°F24.4°C 72.8°F22.7°C 90% Calm Calm 1.0 mph1.6 kmh 30.06 in1017.9 mb 0.00 in0.0 mm 0.00 in0.0 mm 0.00 in0.0 mm
08:17 AM 76.1°F24.5°C 72.6°F22.6°C 89% Calm Calm 1.0 mph1.6 kmh 30.06 in1017.9 mb 0.00 in0.0 mm 0.00 in0.0 mm 0.00 in0.0 mm
08:22 AM 76.3°F24.6°C 72.8°F22.7°C 89% 1.0 mph WSW1.6 kmh WSW 1.0 mph1.6 kmh 30.07 in1018.3 mb 0.00 in0.0 mm 0.00 in0.0 mm 0.00 in0.0 mm
08:27 AM 76.5°F24.7°C 73.0°F22.8°C 89% Calm Calm 1.0 mph1.6 kmh 30.07 in1018.3 mb 0.00 in0.0 mm 0.00 in0.0 mm 0.00 in0.0 mm
08:32 AM 76.7°F24.8°C 73.2°F22.9°C 89% Calm Calm 1.0 mph1.6 kmh 30.07 in1018.3 mb 0.00 in0.0 mm 0.00 in0.0 mm 0.00 in0.0 mm
08:37 AM 76.9°F24.9°C 73.1°F22.8°C 88% Calm Calm 1.0 mph1.6 kmh 30.07 in1018.3 mb 0.00 in0.0 mm 0.00 in0.0 mm 0.00 in0.0 mm
08:42 AM 77.0°F25.0°C 73.2°F22.9°C 88% Calm Calm -- 30.07 in1018.3 mb 0.00 in0.0 mm 0.00 in0.0 mm 0.00 in0.0 mm
08:47 AM 77.0°F25.0°C 73.2°F22.9°C 88% 1.2 mph W1.9 kmh W 2.0 mph3.2 kmh 30.07 in1018.3 mb 0.00 in0.0 mm 0.00 in0.0 mm 0.00 in0.0 mm
08:52 AM 77.0°F25.0°C 73.2°F22.9°C 88% 1.0 mph WNW1.6 kmh WNW 2.0 mph3.2 kmh 30.07 in1018.3 mb 0.00 in0.0 mm 0.00 in0.0 mm 0.00 in0.0 mm
08:57 AM 77.0°F25.0°C 72.9°F22.7°C 87% 1.1 mph NW1.8 kmh NW 4.0 mph6.4 kmh 30.08 in1018.6 mb 0.00 in0.0 mm 0.00 in0.0 mm 0.00 in0.0 mm
09:02 AM 77.1°F25.1°C 73.0°F22.8°C 87% 1.5 mph NW2.4 kmh NW 4.0 mph6.4 kmh 30.08 in1018.6 mb 0.00 in0.0 mm 0.00 in0.0 mm 0.00 in0.0 mm
09:06 AM 77.2°F25.1°C 73.0°F22.8°C 87% 1.3 mph NW2.1 kmh NW 4.0 mph6.4 kmh 30.08 in1018.6 mb 0.00 in0.0 mm 0.00 in0.0 mm 0.00 in0.0 mm
09:11 AM 77.2°F25.1°C 73.0°F22.8°C 87% 1.5 mph WNW2.4 kmh WNW 5.0 mph8.0 kmh 30.08 in1018.6 mb 0.00 in0.0 mm 0.00 in0.0 mm 0.00 in0.0 mm
09:16 AM 77.2°F25.1°C 73.0°F22.8°C 87% 3.1 mph NW5.0 kmh NW 5.0 mph8.0 kmh 30.08 in1018.6 mb 0.00 in0.0 mm 0.00 in0.0 mm 0.00 in0.0 mm
09:21 AM 77.2°F25.1°C 73.0°F22.8°C 87% 2.0 mph NW3.2 kmh NW 6.0 mph9.7 kmh 30.08 in1018.6 mb 0.00 in0.0 mm 0.00 in0.0 mm 0.00 in0.0 mm
09:26 AM 77.2°F25.1°C 73.4°F23.0°C 88% 1.2 mph WNW1.9 kmh WNW 6.0 mph9.7 kmh 30.09 in1019.0 mb 0.00 in0.0 mm 0.00 in0.0 mm 0.00 in0.0 mm
09:31 AM 77.2°F25.1°C 73.4°F23.0°C 88% 1.2 mph NW1.9 kmh NW 6.0 mph9.7 kmh 30.09 in1019.0 mb 0.00 in0.0 mm 0.00 in0.0 mm 0.00 in0.0 mm
09:36 AM 77.3°F25.2°C 73.5°F23.1°C 88% 1.9 mph NNW3.1 kmh NNW 6.0 mph9.7 kmh 30.09 in1019.0 mb 0.00 in0.0 mm 0.00 in0.0 mm 0.00 in0.0 mm
09:41 AM 77.3°F25.2°C 73.5°F23.1°C 88% 1.4 mph WNW2.3 kmh WNW 4.0 mph6.4 kmh 30.09 in1019.0 mb 0.00 in0.0 mm 0.00 in0.0 mm 0.00 in0.0 mm
09:46 AM 77.3°F25.2°C 73.5°F23.1°C 88% 2.6 mph NW4.2 kmh NW 6.0 mph9.7 kmh 30.09 in1019.0 mb 0.00 in0.0 mm 0.00 in0.0 mm 0.00 in0.0 mm
09:51 AM 77.3°F25.2°C 73.1°F22.8°C 87% 2.4 mph NW3.9 kmh NW 6.0 mph9.7 kmh 30.09 in1019.0 mb 0.00 in0.0 mm 0.00 in0.0 mm 0.00 in0.0 mm
09:56 AM 77.4°F25.2°C 73.6°F23.1°C 88% 1.0 mph WNW1.6 kmh WNW 6.0 mph9.7 kmh 30.09 in1019.0 mb 0.00 in0.0 mm 0.00 in0.0 mm 0.00 in0.0 mm
10:01 AM 77.5°F25.3°C 73.3°F22.9°C 87% 1.6 mph NW2.6 kmh NW 6.0 mph9.7 kmh 30.09 in1019.0 mb 0.00 in0.0 mm 0.00 in0.0 mm 0.00 in0.0 mm
10:06 AM 77.5°F25.3°C 73.7°F23.2°C 88% 1.4 mph WNW2.3 kmh WNW 5.0 mph8.0 kmh 30.09 in1019.0 mb 0.00 in0.0 mm 0.00 in0.0 mm 0.00 in0.0 mm
10:11 AM 77.6°F25.3°C 73.4°F23.0°C 87% 1.2 mph W1.9 kmh W 4.0 mph6.4 kmh 30.09 in1019.0 mb 0.00 in0.0 mm 0.00 in0.0 mm 0.00 in0.0 mm
10:16 AM 77.6°F25.3°C 73.4°F23.0°C 87% 1.6 mph WNW2.6 kmh WNW 4.0 mph6.4 kmh 30.09 in1019.0 mb 0.00 in0.0 mm 0.00 in0.0 mm 0.00 in0.0 mm
10:21 AM 77.7°F25.4°C 73.5°F23.1°C 87% 1.6 mph WNW2.6 kmh WNW 4.0 mph6.4 kmh 30.10 in1019.3 mb 0.00 in0.0 mm 0.00 in0.0 mm 0.00 in0.0 mm
10:26 AM 77.7°F25.4°C 73.9°F23.3°C 88% 1.0 mph W1.6 kmh W 3.0 mph4.8 kmh 30.09 in1019.0 mb 0.00 in0.0 mm 0.00 in0.0 mm 0.00 in0.0 mm
10:31 AM 77.9°F25.5°C 74.1°F23.4°C 88% 1.1 mph W1.8 kmh W 3.0 mph4.8 kmh 30.09 in1019.0 mb 0.00 in0.0 mm 0.00 in0.0 mm 0.00 in0.0 mm
10:36 AM 78.0°F25.6°C 73.8°F23.2°C 87% 1.0 mph WSW1.6 kmh WSW 3.0 mph4.8 kmh 30.10 in1019.3 mb 0.00 in0.0 mm 0.00 in0.0 mm 0.00 in0.0 mm
10:41 AM 78.2°F25.7°C 74.0°F23.3°C 87% 1.5 mph W2.4 kmh W 3.0 mph4.8 kmh 30.09 in1019.0 mb 0.00 in0.0 mm 0.00 in0.0 mm 0.00 in0.0 mm
10:46 AM 78.5°F25.8°C 74.7°F23.7°C 88% 1.0 mph NNW1.6 kmh NNW 3.0 mph4.8 kmh 30.09 in1019.0 mb 0.00 in0.0 mm 0.00 in0.0 mm 0.00 in0.0 mm
10:51 AM 78.7°F25.9°C 74.5°F23.6°C 87% 1.5 mph SW2.4 kmh SW 3.0 mph4.8 kmh 30.09 in1019.0 mb 0.00 in0.0 mm 0.00 in0.0 mm 0.00 in0.0 mm
10:56 AM 78.9°F26.1°C 74.7°F23.7°C 87% 1.0 mph WSW1.6 kmh WSW 3.0 mph4.8 kmh 30.09 in1019.0 mb 0.00 in0.0 mm 0.00 in0.0 mm 0.00 in0.0 mm
11:01 AM 79.3°F26.3°C 75.1°F23.9°C 87% Calm Calm 2.0 mph3.2 kmh 30.09 in1019.0 mb 0.00 in0.0 mm 0.00 in0.0 mm 0.00 in0.0 mm
11:06 AM 79.7°F26.5°C 74.8°F23.8°C 85% 2.0 mph WSW3.2 kmh WSW 3.0 mph4.8 kmh 30.09 in1019.0 mb 0.00 in0.0 mm 0.00 in0.0 mm 0.00 in0.0 mm
11:11 AM 80.2°F26.8°C 75.3°F24.1°C 85% 1.6 mph SW2.6 kmh SW 3.0 mph4.8 kmh 30.09 in1019.0 mb 0.00 in0.0 mm 0.00 in0.0 mm 0.00 in0.0 mm
11:16 AM 80.5°F26.9°C 75.6°F24.2°C 85% 1.0 mph SW1.6 kmh SW 4.0 mph6.4 kmh 30.09 in1019.0 mb 0.00 in0.0 mm 0.00 in0.0 mm 0.00 in0.0 mm
11:21 AM 81.0°F27.2°C 76.8°F24.9°C 87% Calm Calm 4.0 mph6.4 kmh 30.09 in1019.0 mb 0.00 in0.0 mm 0.00 in0.0 mm 0.00 in0.0 mm
11:26 AM 81.3°F27.4°C 76.8°F24.9°C 86% 1.0 mph SE1.6 kmh SE 4.0 mph6.4 kmh 30.09 in1019.0 mb 0.00 in0.0 mm 0.00 in0.0 mm 0.00 in0.0 mm
11:31 AM 81.8°F27.7°C 77.2°F25.1°C 86% 1.5 mph S2.4 kmh S 2.0 mph3.2 kmh 30.09 in1019.0 mb 0.00 in0.0 mm 0.00 in0.0 mm 0.00 in0.0 mm
11:36 AM 82.3°F27.9°C 77.7°F25.4°C 86% Calm Calm 2.0 mph3.2 kmh 30.09 in1019.0 mb 0.00 in0.0 mm 0.00 in0.0 mm 0.00 in0.0 mm
11:41 AM 82.7°F28.2°C 77.8°F25.4°C 85% 1.0 mph SW1.6 kmh SW 2.0 mph3.2 kmh 30.09 in1019.0 mb 0.00 in0.0 mm 0.00 in0.0 mm 0.00 in0.0 mm
11:46 AM 83.1°F28.4°C 77.1°F25.1°C 82% 1.1 mph WSW1.8 kmh WSW 2.0 mph3.2 kmh 30.09 in1019.0 mb 0.00 in0.0 mm 0.00 in0.0 mm 0.00 in0.0 mm
11:51 AM 83.3°F28.5°C 77.3°F25.2°C 82% 1.6 mph WSW2.6 kmh WSW 4.0 mph6.4 kmh 30.09 in1019.0 mb 0.00 in0.0 mm 0.00 in0.0 mm 0.00 in0.0 mm
11:56 AM 83.6°F28.7°C 77.3°F25.2°C 81% 3.2 mph WSW5.1 kmh WSW 5.0 mph8.0 kmh 30.09 in1019.0 mb 0.00 in0.0 mm 0.00 in0.0 mm 0.00 in0.0 mm
12:01 PM 83.4°F28.6°C 77.1°F25.1°C 81% 3.2 mph SW5.1 kmh SW 6.0 mph9.7 kmh 30.09 in1019.0 mb 0.00 in0.0 mm 0.00 in0.0 mm 0.00 in0.0 mm
12:06 PM 83.6°F28.7°C 77.3°F25.2°C 81% 2.3 mph SW3.7 kmh SW 6.0 mph9.7 kmh 30.09 in1019.0 mb 0.00 in0.0 mm 0.00 in0.0 mm 0.00 in0.0 mm
12:11 PM 83.9°F28.8°C 77.6°F25.3°C 81% 3.5 mph SW5.6 kmh SW 6.0 mph9.7 kmh 30.09 in1019.0 mb 0.00 in0.0 mm 0.00 in0.0 mm 0.00 in0.0 mm
12:16 PM 83.6°F28.7°C 77.1°F25.1°C 81% 2.6 mph SW4.2 kmh SW 6.0 mph9.7 kmh 30.09 in1019.0 mb 0.00 in0.0 mm 0.00 in0.0 mm 0.00 in0.0 mm
12:21 PM 83.9°F28.8°C 77.9°F25.5°C 82% 3.0 mph SW4.8 kmh SW 6.0 mph9.7 kmh 30.09 in1019.0 mb 0.00 in0.0 mm 0.00 in0.0 mm 0.00 in0.0 mm
12:26 PM 84.1°F28.9°C 78.1°F25.6°C 82% 1.0 mph WNW1.6 kmh WNW 6.0 mph9.7 kmh 30.09 in1019.0 mb 0.00 in0.0 mm 0.00 in0.0 mm 0.00 in0.0 mm
12:31 PM 84.2°F29.0°C 77.8°F25.4°C 81% 1.0 mph SW1.6 kmh SW 6.0 mph9.7 kmh 30.09 in1019.0 mb 0.00 in0.0 mm 0.00 in0.0 mm 0.00 in0.0 mm
12:36 PM 84.5°F29.2°C 78.1°F25.6°C 81% Calm Calm 4.0 mph6.4 kmh 30.09 in1019.0 mb 0.00 in0.0 mm 0.00 in0.0 mm 0.00 in0.0 mm
12:41 PM 84.8°F29.3°C 78.1°F25.6°C 80% Calm Calm 4.0 mph6.4 kmh 30.08 in1018.6 mb 0.00 in0.0 mm 0.00 in0.0 mm 0.00 in0.0 mm
12:46 PM 85.1°F29.5°C 78.4°F25.8°C 80% Calm Calm 4.0 mph6.4 kmh 30.08 in1018.6 mb 0.00 in0.0 mm 0.00 in0.0 mm 0.00 in0.0 mm
12:51 PM 85.7°F29.8°C 79.0°F26.1°C 80% 1.0 mph SSW1.6 kmh SSW 3.0 mph4.8 kmh 30.08 in1018.6 mb 0.00 in0.0 mm 0.00 in0.0 mm 0.00 in0.0 mm
12:56 PM 85.9°F29.9°C 78.8°F26.0°C 79% 1.1 mph SSW1.8 kmh SSW 3.0 mph4.8 kmh 30.08 in1018.6 mb 0.00 in0.0 mm 0.00 in0.0 mm 0.00 in0.0 mm
01:01 PM 86.1°F30.1°C 79.0°F26.1°C 79% Calm Calm 2.0 mph3.2 kmh 30.07 in1018.3 mb 0.00 in0.0 mm 0.00 in0.0 mm 0.00 in0.0 mm
01:06 PM 86.3°F30.2°C 78.4°F25.8°C 77% Calm Calm 2.0 mph3.2 kmh 30.07 in1018.3 mb 0.00 in0.0 mm 0.00 in0.0 mm 0.00 in0.0 mm
01:11 PM 86.4°F30.2°C 78.5°F25.8°C 77% 1.3 mph SW2.1 kmh SW 2.0 mph3.2 kmh 30.07 in1018.3 mb 0.00 in0.0 mm 0.00 in0.0 mm 0.00 in0.0 mm
01:16 PM 86.5°F30.3°C 79.0°F26.1°C 78% Calm Calm 2.0 mph3.2 kmh 30.07 in1018.3 mb 0.00 in0.0 mm 0.00 in0.0 mm 0.00 in0.0 mm
01:21 PM 86.6°F30.3°C 78.7°F25.9°C 77% Calm Calm 2.0 mph3.2 kmh 30.06 in1017.9 mb 0.00 in0.0 mm 0.00 in0.0 mm 0.00 in0.0 mm
01:26 PM 86.8°F30.4°C 78.5°F25.8°C 76% 1.0 mph ESE1.6 kmh ESE 2.0 mph3.2 kmh 30.06 in1017.9 mb 0.00 in0.0 mm 0.00 in0.0 mm 0.00 in0.0 mm
01:31 PM 86.6°F30.3°C 77.9°F25.5°C 75% 1.5 mph SW2.4 kmh SW 2.0 mph3.2 kmh 30.06 in1017.9 mb 0.00 in0.0 mm 0.00 in0.0 mm 0.00 in0.0 mm
01:36 PM 86.7°F30.4°C 78.0°F25.6°C 75% 1.0 mph S1.6 kmh S 2.0 mph3.2 kmh 30.06 in1017.9 mb 0.00 in0.0 mm 0.00 in0.0 mm 0.00 in0.0 mm
01:41 PM 87.2°F30.7°C 78.5°F25.8°C 75% Calm Calm 2.0 mph3.2 kmh 30.06 in1017.9 mb 0.00 in0.0 mm 0.00 in0.0 mm 0.00 in0.0 mm
01:46 PM 87.6°F30.9°C 78.3°F25.7°C 74% 1.0 mph S1.6 kmh S 2.0 mph3.2 kmh 30.06 in1017.9 mb 0.00 in0.0 mm 0.00 in0.0 mm 0.00 in0.0 mm
01:51 PM 88.0°F31.1°C 78.1°F25.6°C 72% Calm Calm 2.0 mph3.2 kmh 30.05 in1017.6 mb 0.00 in0.0 mm 0.00 in0.0 mm 0.00 in0.0 mm
01:56 PM 88.4°F31.3°C 77.6°F25.3°C 70% 1.8 mph ESE2.9 kmh ESE 3.0 mph4.8 kmh 30.05 in1017.6 mb 0.00 in0.0 mm 0.00 in0.0 mm 0.00 in0.0 mm
02:01 PM 89.1°F31.7°C 79.1°F26.2°C 72% 1.5 mph SW2.4 kmh SW 3.0 mph4.8 kmh 30.04 in1017.3 mb 0.00 in0.0 mm 0.00 in0.0 mm 0.00 in0.0 mm
02:06 PM 89.4°F31.9°C 76.8°F24.9°C 66% 3.3 mph SW5.3 kmh SW 6.0 mph9.7 kmh 30.04 in1017.3 mb 0.00 in0.0 mm 0.00 in0.0 mm 0.00 in0.0 mm
02:11 PM 88.9°F31.6°C 76.4°F24.7°C 66% 1.8 mph ESE2.9 kmh ESE 6.0 mph9.7 kmh 30.04 in1017.3 mb 0.00 in0.0 mm 0.00 in0.0 mm 0.00 in0.0 mm
02:16 PM 89.4°F31.9°C 78.2°F25.7°C 69% 1.0 mph WSW1.6 kmh WSW 6.0 mph9.7 kmh 30.04 in1017.3 mb 0.00 in0.0 mm 0.00 in0.0 mm 0.00 in0.0 mm
02:21 PM 90.2°F32.3°C 75.2°F24.0°C 61% 3.0 mph NW4.8 kmh NW 6.0 mph9.7 kmh 30.04 in1017.3 mb 0.00 in0.0 mm 0.00 in0.0 mm 0.00 in0.0 mm
02:26 PM 90.2°F32.3°C 74.7°F23.7°C 60% 2.8 mph WNW4.5 kmh WNW 6.0 mph9.7 kmh 30.04 in1017.3 mb 0.00 in0.0 mm 0.00 in0.0 mm 0.00 in0.0 mm
02:31 PM 89.8°F32.1°C 75.3°F24.1°C 62% 3.1 mph WSW5.0 kmh WSW 7.0 mph11.3 kmh 30.03 in1016.9 mb 0.00 in0.0 mm 0.00 in0.0 mm 0.00 in0.0 mm
02:36 PM 89.6°F32.0°C 75.2°F24.0°C 62% 3.2 mph SW5.1 kmh SW 8.0 mph12.9 kmh 30.03 in1016.9 mb 0.00 in0.0 mm 0.00 in0.0 mm 0.00 in0.0 mm
02:41 PM 89.8°F32.1°C 75.8°F24.3°C 63% 2.5 mph WSW4.0 kmh WSW 8.0 mph12.9 kmh 30.03 in1016.9 mb 0.00 in0.0 mm 0.00 in0.0 mm 0.00 in0.0 mm
02:46 PM 89.3°F31.8°C 76.0°F24.4°C 65% 1.0 mph WSW1.6 kmh WSW 8.0 mph12.9 kmh 30.03 in1016.9 mb 0.00 in0.0 mm 0.00 in0.0 mm 0.00 in0.0 mm
02:51 PM 89.2°F31.8°C 76.2°F24.6°C 65% Calm Calm 8.0 mph12.9 kmh 30.03 in1016.9 mb 0.00 in0.0 mm 0.00 in0.0 mm 0.00 in0.0 mm
02:56 PM 89.3°F31.8°C 75.0°F23.9°C 63% 1.7 mph WNW2.7 kmh WNW 4.0 mph6.4 kmh 30.03 in1016.9 mb 0.00 in0.0 mm 0.00 in0.0 mm 0.00 in0.0 mm
03:01 PM 89.3°F31.8°C 76.7°F24.8°C 66% 2.2 mph NW3.5 kmh NW 4.0 mph6.4 kmh 30.03 in1016.9 mb 0.00 in0.0 mm 0.00 in0.0 mm 0.00 in0.0 mm
03:05 PM 88.0°F31.1°C 76.8°F24.9°C 69% 2.1 mph N3.4 kmh N 6.0 mph9.7 kmh 30.03 in1016.9 mb 0.00 in0.0 mm 0.00 in0.0 mm 0.00 in0.0 mm
03:10 PM 86.9°F30.5°C 76.6°F24.8°C 71% 2.4 mph NW3.9 kmh NW 8.0 mph12.9 kmh 30.03 in1016.9 mb 0.00 in0.0 mm 0.00 in0.0 mm 0.00 in0.0 mm
03:15 PM 86.2°F30.1°C 76.3°F24.6°C 72% 3.3 mph NW5.3 kmh NW 8.0 mph12.9 kmh 30.03 in1016.9 mb 0.00 in0.0 mm 0.00 in0.0 mm 0.00 in0.0 mm
03:20 PM 85.6°F29.8°C 75.5°F24.2°C 72% 2.6 mph NW4.2 kmh NW 8.0 mph12.9 kmh 30.03 in1016.9 mb 0.00 in0.0 mm 0.00 in0.0 mm 0.00 in0.0 mm
03:25 PM 85.3°F29.6°C 76.3°F24.6°C 74% 1.0 mph N1.6 kmh N 8.0 mph12.9 kmh 30.03 in1016.9 mb 0.00 in0.0 mm 0.00 in0.0 mm 0.00 in0.0 mm
03:30 PM 85.1°F29.5°C 76.5°F24.7°C 75% 2.4 mph NNW3.9 kmh NNW 7.0 mph11.3 kmh 30.03 in1016.9 mb 0.00 in0.0 mm 0.00 in0.0 mm 0.00 in0.0 mm
03:35 PM 84.6°F29.2°C 76.8°F24.9°C 77% 3.6 mph NW5.8 kmh NW 9.0 mph14.5 kmh 30.03 in1016.9 mb 0.00 in0.0 mm 0.00 in0.0 mm 0.00 in0.0 mm
03:40 PM 83.9°F28.8°C 77.6°F25.3°C 81% 1.3 mph N2.1 kmh N 9.0 mph14.5 kmh 30.04 in1017.3 mb 0.00 in0.0 mm 0.00 in0.0 mm 0.00 in0.0 mm
03:45 PM 82.9°F28.3°C 77.6°F25.3°C 84% 1.3 mph N2.1 kmh N 9.0 mph14.5 kmh 30.04 in1017.3 mb 0.01 in0.3 mm 0.12 in3.0 mm 0.01 in0.3 mm
03:50 PM 82.2°F27.9°C 77.6°F25.3°C 86% 1.7 mph NE2.7 kmh NE 9.0 mph14.5 kmh 30.03 in1016.9 mb 0.03 in0.8 mm 0.24 in6.1 mm 0.03 in0.8 mm
03:55 PM 81.8°F27.7°C 77.6°F25.3°C 87% 1.2 mph NNW1.9 kmh NNW 5.0 mph8.0 kmh 30.03 in1016.9 mb 0.04 in1.0 mm 0.12 in3.0 mm 0.04 in1.0 mm
04:00 PM 81.5°F27.5°C 75.9°F24.4°C 83% 6.3 mph WNW10.1 kmh WNW 12.0 mph19.3 kmh 30.04 in1017.3 mb 0.04 in1.0 mm 0.00 in0.0 mm 0.04 in1.0 mm
04:05 PM 81.4°F27.4°C 76.1°F24.5°C 84% 3.4 mph WNW5.5 kmh WNW 12.0 mph19.3 kmh 30.04 in1017.3 mb 0.04 in1.0 mm 0.00 in0.0 mm 0.04 in1.0 mm
04:10 PM 81.3°F27.4°C 76.1°F24.5°C 84% 4.5 mph NW7.2 kmh NW 14.0 mph22.5 kmh 30.04 in1017.3 mb 0.04 in1.0 mm 0.00 in0.0 mm 0.04 in1.0 mm
04:15 PM 81.4°F27.4°C 76.2°F24.6°C 84% 3.4 mph WNW5.5 kmh WNW 16.0 mph25.7 kmh 30.03 in1016.9 mb 0.04 in1.0 mm 0.00 in0.0 mm 0.04 in1.0 mm
04:20 PM 81.2°F27.3°C 75.3°F24.1°C 82% 6.5 mph NW10.5 kmh NW 16.0 mph25.7 kmh 30.03 in1016.9 mb 0.04 in1.0 mm 0.00 in0.0 mm 0.04 in1.0 mm
04:25 PM 81.3°F27.4°C 75.0°F23.9°C 81% 4.9 mph NW7.9 kmh NW 16.0 mph25.7 kmh 30.03 in1016.9 mb 0.04 in1.0 mm 0.00 in0.0 mm 0.04 in1.0 mm
04:30 PM 81.6°F27.6°C 75.2°F24.0°C 81% 3.0 mph WNW4.8 kmh WNW 16.0 mph25.7 kmh 30.04 in1017.3 mb 0.04 in1.0 mm 0.00 in0.0 mm 0.04 in1.0 mm
04:35 PM 81.6°F27.6°C 75.3°F24.1°C 81% 3.3 mph W5.3 kmh W 15.0 mph24.1 kmh 30.03 in1016.9 mb 0.04 in1.0 mm 0.00 in0.0 mm 0.04 in1.0 mm
04:40 PM 81.5°F27.5°C 74.9°F23.8°C 80% 2.8 mph NW4.5 kmh NW 14.0 mph22.5 kmh 30.03 in1016.9 mb 0.04 in1.0 mm 0.00 in0.0 mm 0.04 in1.0 mm
04:45 PM 81.8°F27.7°C 74.8°F23.8°C 79% 2.2 mph NW3.5 kmh NW 12.0 mph19.3 kmh 30.04 in1017.3 mb 0.03 in0.8 mm 0.00 in0.0 mm 0.04 in1.0 mm
04:50 PM 82.0°F27.8°C 74.2°F23.4°C 77% 6.1 mph NW9.8 kmh NW 14.0 mph22.5 kmh 30.04 in1017.3 mb 0.01 in0.3 mm 0.00 in0.0 mm 0.04 in1.0 mm
04:55 PM 82.1°F27.8°C 74.3°F23.5°C 77% 5.0 mph WNW8.0 kmh WNW 14.0 mph22.5 kmh 30.03 in1016.9 mb 0.00 in0.0 mm 0.00 in0.0 mm 0.04 in1.0 mm
05:00 PM 82.0°F27.8°C 73.7°F23.2°C 76% 6.4 mph NW10.3 kmh NW 15.0 mph24.1 kmh 30.03 in1016.9 mb 0.00 in0.0 mm 0.00 in0.0 mm 0.04 in1.0 mm
05:05 PM 81.9°F27.7°C 74.1°F23.4°C 77% 4.1 mph W6.6 kmh W 15.0 mph24.1 kmh 30.02 in1016.6 mb 0.00 in0.0 mm 0.00 in0.0 mm 0.04 in1.0 mm
05:10 PM 81.9°F27.7°C 73.8°F23.2°C 76% 6.2 mph W10.0 kmh W 15.0 mph24.1 kmh 30.02 in1016.6 mb 0.00 in0.0 mm 0.00 in0.0 mm 0.04 in1.0 mm
05:15 PM 82.0°F27.8°C 73.9°F23.3°C 76% 5.4 mph WNW8.7 kmh WNW 15.0 mph24.1 kmh 30.02 in1016.6 mb 0.00 in0.0 mm 0.00 in0.0 mm 0.04 in1.0 mm
05:20 PM 82.4°F28.0°C 73.9°F23.3°C 75% 5.9 mph WNW9.5 kmh WNW 16.0 mph25.7 kmh 30.03 in1016.9 mb 0.00 in0.0 mm 0.00 in0.0 mm 0.04 in1.0 mm
05:25 PM 82.2°F27.9°C 73.5°F23.1°C 75% 3.3 mph WNW5.3 kmh WNW 16.0 mph25.7 kmh 30.04 in1017.3 mb 0.00 in0.0 mm 0.00 in0.0 mm 0.04 in1.0 mm
05:30 PM 82.1°F27.8°C 74.0°F23.3°C 76% 1.2 mph WSW1.9 kmh WSW 16.0 mph25.7 kmh 30.04 in1017.3 mb 0.00 in0.0 mm 0.00 in0.0 mm 0.04 in1.0 mm
05:35 PM 82.0°F27.8°C 73.5°F23.1°C 75% 2.3 mph WNW3.7 kmh WNW 16.0 mph25.7 kmh 30.03 in1016.9 mb 0.00 in0.0 mm 0.00 in0.0 mm 0.04 in1.0 mm
05:40 PM 82.1°F27.8°C 73.8°F23.2°C 76% 1.7 mph W2.7 kmh W 16.0 mph25.7 kmh 30.04 in1017.3 mb 0.00 in0.0 mm 0.00 in0.0 mm 0.04 in1.0 mm
05:45 PM 82.0°F27.8°C 73.5°F23.1°C 75% 2.9 mph NW4.7 kmh NW 7.0 mph11.3 kmh 30.04 in1017.3 mb 0.00 in0.0 mm 0.00 in0.0 mm 0.04 in1.0 mm
05:50 PM 81.9°F27.7°C 73.8°F23.2°C 76% 1.7 mph NW2.7 kmh NW 7.0 mph11.3 kmh 30.03 in1016.9 mb 0.00 in0.0 mm 0.00 in0.0 mm 0.04 in1.0 mm
05:55 PM 81.9°F27.7°C 74.1°F23.4°C 77% Calm Calm 7.0 mph11.3 kmh 30.04 in1017.3 mb 0.00 in0.0 mm 0.00 in0.0 mm 0.04 in1.0 mm
06:00 PM 81.9°F27.7°C 73.8°F23.2°C 76% Calm Calm 7.0 mph11.3 kmh 30.04 in1017.3 mb 0.00 in0.0 mm 0.00 in0.0 mm 0.04 in1.0 mm
06:05 PM 81.9°F27.7°C 73.4°F23.0°C 75% 1.0 mph WNW1.6 kmh WNW 4.0 mph6.4 kmh 30.04 in1017.3 mb 0.00 in0.0 mm 0.00 in0.0 mm 0.04 in1.0 mm
06:10 PM 81.9°F27.7°C 73.2°F22.9°C 75% 1.2 mph WSW1.9 kmh WSW 4.0 mph6.4 kmh 30.03 in1016.9 mb 0.00 in0.0 mm 0.00 in0.0 mm 0.04 in1.0 mm
06:15 PM 81.7°F27.6°C 73.2°F22.9°C 75% Calm Calm 3.0 mph4.8 kmh 30.03 in1016.9 mb 0.00 in0.0 mm 0.00 in0.0 mm 0.04 in1.0 mm
06:20 PM 81.7°F27.6°C 72.8°F22.7°C 74% 1.0 mph SW1.6 kmh SW 3.0 mph4.8 kmh 30.04 in1017.3 mb 0.00 in0.0 mm 0.00 in0.0 mm 0.04 in1.0 mm
06:25 PM 81.6°F27.6°C 73.1°F22.8°C 75% 1.6 mph WSW2.6 kmh WSW 3.0 mph4.8 kmh 30.03 in1016.9 mb 0.00 in0.0 mm 0.00 in0.0 mm 0.04 in1.0 mm
06:30 PM 81.2°F27.3°C 71.5°F21.9°C 72% 1.6 mph WSW2.6 kmh WSW 4.0 mph6.4 kmh 30.03 in1016.9 mb 0.00 in0.0 mm 0.00 in0.0 mm 0.04 in1.0 mm
06:35 PM 81.1°F27.3°C 71.6°F22.0°C 73% 1.0 mph W1.6 kmh W 4.0 mph6.4 kmh 30.04 in1017.3 mb 0.00 in0.0 mm 0.00 in0.0 mm 0.04 in1.0 mm
06:40 PM 80.9°F27.2°C 72.4°F22.4°C 75% 1.0 mph WSW1.6 kmh WSW 4.0 mph6.4 kmh 30.03 in1016.9 mb 0.00 in0.0 mm 0.00 in0.0 mm 0.04 in1.0 mm
06:45 PM 80.5°F26.9°C 72.4°F22.4°C 76% 1.0 mph WSW1.6 kmh WSW 4.0 mph6.4 kmh 30.03 in1016.9 mb 0.00 in0.0 mm 0.00 in0.0 mm 0.04 in1.0 mm
06:50 PM 80.2°F26.8°C 72.1°F22.3°C 76% 1.0 mph NW1.6 kmh NW 2.0 mph3.2 kmh 30.04 in1017.3 mb 0.00 in0.0 mm 0.00 in0.0 mm 0.04 in1.0 mm
06:55 PM 79.9°F26.6°C 72.4°F22.4°C 78% Calm Calm 1.0 mph1.6 kmh 30.04 in1017.3 mb 0.00 in0.0 mm 0.00 in0.0 mm 0.04 in1.0 mm
07:00 PM 79.6°F26.4°C 72.1°F22.3°C 78% 1.0 mph WNW1.6 kmh WNW 1.0 mph1.6 kmh 30.04 in1017.3 mb 0.00 in0.0 mm 0.00 in0.0 mm 0.04 in1.0 mm
07:05 PM 79.3°F26.3°C 72.0°F22.2°C 78% Calm Calm 1.0 mph1.6 kmh 30.04 in1017.3 mb 0.00 in0.0 mm 0.00 in0.0 mm 0.04 in1.0 mm
07:10 PM 79.1°F26.2°C 71.8°F22.1°C 78% Calm Calm 1.0 mph1.6 kmh 30.04 in1017.3 mb 0.00 in0.0 mm 0.00 in0.0 mm 0.04 in1.0 mm
07:15 PM 79.1°F26.2°C 72.9°F22.7°C 81% Calm Calm 1.0 mph1.6 kmh 30.04 in1017.3 mb 0.00 in0.0 mm 0.00 in0.0 mm 0.04 in1.0 mm
07:20 PM 78.8°F26.0°C 72.9°F22.7°C 82% Calm Calm 1.0 mph1.6 kmh 30.04 in1017.3 mb 0.00 in0.0 mm 0.00 in0.0 mm 0.04 in1.0 mm
07:25 PM 78.7°F25.9°C 73.2°F22.9°C 83% Calm Calm 1.0 mph1.6 kmh 30.04 in1017.3 mb 0.00 in0.0 mm 0.00 in0.0 mm 0.04 in1.0 mm
07:30 PM 78.6°F25.9°C 73.1°F22.8°C 83% Calm Calm -- 30.04 in1017.3 mb 0.00 in0.0 mm 0.00 in0.0 mm 0.04 in1.0 mm
07:35 PM 78.4°F25.8°C 73.6°F23.1°C 85% Calm Calm -- 30.05 in1017.6 mb 0.00 in0.0 mm 0.00 in0.0 mm 0.04 in1.0 mm
07:40 PM 78.2°F25.7°C 73.7°F23.2°C 86% Calm Calm -- 30.05 in1017.6 mb 0.00 in0.0 mm 0.00 in0.0 mm 0.04 in1.0 mm
07:45 PM 77.9°F25.5°C 74.1°F23.4°C 88% 1.0 mph SE1.6 kmh SE 1.0 mph1.6 kmh 30.06 in1017.9 mb 0.00 in0.0 mm 0.00 in0.0 mm 0.04 in1.0 mm
07:50 PM 77.6°F25.3°C 74.1°F23.4°C 89% 1.4 mph SE2.3 kmh SE 3.0 mph4.8 kmh 30.06 in1017.9 mb 0.00 in0.0 mm 0.00 in0.0 mm 0.04 in1.0 mm
07:55 PM 77.3°F25.2°C 74.1°F23.4°C 90% 1.0 mph SSE1.6 kmh SSE 3.0 mph4.8 kmh 30.07 in1018.3 mb 0.01 in0.3 mm 0.12 in3.0 mm 0.05 in1.3 mm
08:00 PM 76.9°F24.9°C 74.1°F23.4°C 91% 1.0 mph SE1.6 kmh SE 3.0 mph4.8 kmh 30.07 in1018.3 mb 0.01 in0.3 mm 0.00 in0.0 mm 0.05 in1.3 mm
08:04 PM 76.5°F24.7°C 74.0°F23.3°C 92% 1.0 mph SE1.6 kmh SE 3.0 mph4.8 kmh 30.06 in1017.9 mb 0.02 in0.5 mm 0.15 in3.8 mm 0.06 in1.5 mm
08:09 PM 76.2°F24.6°C 74.0°F23.3°C 93% 1.4 mph S2.3 kmh S 4.0 mph6.4 kmh 30.06 in1017.9 mb 0.02 in0.5 mm 0.00 in0.0 mm 0.06 in1.5 mm
08:14 PM 75.8°F24.3°C 73.6°F23.1°C 93% 2.0 mph SW3.2 kmh SW 4.0 mph6.4 kmh 30.07 in1018.3 mb 0.03 in0.8 mm 0.12 in3.0 mm 0.07 in1.8 mm
08:19 PM 75.5°F24.2°C 73.6°F23.1°C 94% 1.0 mph SW1.6 kmh SW 4.0 mph6.4 kmh 30.07 in1018.3 mb 0.03 in0.8 mm 0.00 in0.0 mm 0.07 in1.8 mm
08:24 PM 75.3°F24.1°C 73.4°F23.0°C 94% 2.2 mph SW3.5 kmh SW 5.0 mph8.0 kmh 30.06 in1017.9 mb 0.03 in0.8 mm 0.00 in0.0 mm 0.07 in1.8 mm
08:29 PM 75.0°F23.9°C 73.2°F22.9°C 94% 3.0 mph SW4.8 kmh SW 8.0 mph12.9 kmh 30.06 in1017.9 mb 0.03 in0.8 mm 0.00 in0.0 mm 0.07 in1.8 mm
08:34 PM 74.8°F23.8°C 73.3°F22.9°C 95% 2.0 mph SW3.2 kmh SW 8.0 mph12.9 kmh 30.06 in1017.9 mb 0.03 in0.8 mm 0.00 in0.0 mm 0.07 in1.8 mm
08:39 PM 74.6°F23.7°C 73.0°F22.8°C 95% 3.6 mph SW5.8 kmh SW 8.0 mph12.9 kmh 30.06 in1017.9 mb 0.03 in0.8 mm 0.00 in0.0 mm 0.07 in1.8 mm
08:44 PM 74.5°F23.6°C 72.9°F22.7°C 95% 1.6 mph SW2.6 kmh SW 9.0 mph14.5 kmh 30.07 in1018.3 mb 0.03 in0.8 mm 0.00 in0.0 mm 0.07 in1.8 mm
08:49 PM 74.4°F23.6°C 72.8°F22.7°C 95% 1.0 mph SW1.6 kmh SW 9.0 mph14.5 kmh 30.07 in1018.3 mb 0.03 in0.8 mm 0.00 in0.0 mm 0.07 in1.8 mm
08:54 PM 74.3°F23.5°C 72.7°F22.6°C 95% 1.4 mph SSW2.3 kmh SSW 9.0 mph14.5 kmh 30.07 in1018.3 mb 0.02 in0.5 mm 0.00 in0.0 mm 0.07 in1.8 mm
08:59 PM 74.2°F23.4°C 73.0°F22.8°C 96% 1.8 mph SW2.9 kmh SW 8.0 mph12.9 kmh 30.07 in1018.3 mb 0.02 in0.5 mm 0.00 in0.0 mm 0.07 in1.8 mm
09:04 PM 74.1°F23.4°C 72.9°F22.7°C 96% 2.6 mph SW4.2 kmh SW 7.0 mph11.3 kmh 30.07 in1018.3 mb 0.01 in0.3 mm 0.00 in0.0 mm 0.07 in1.8 mm
09:10 PM 74.0°F23.3°C 72.8°F22.7°C 96% 1.8 mph SW2.9 kmh SW 7.0 mph11.3 kmh 30.07 in1018.3 mb 0.01 in0.3 mm 0.00 in0.0 mm 0.07 in1.8 mm
09:14 PM 73.9°F23.3°C 72.7°F22.6°C 96% 1.5 mph SW2.4 kmh SW 7.0 mph11.3 kmh 30.07 in1018.3 mb 0.00 in0.0 mm 0.00 in0.0 mm 0.07 in1.8 mm
09:19 PM 73.8°F23.2°C 72.6°F22.6°C 96% 1.8 mph SSW2.9 kmh SSW 6.0 mph9.7 kmh 30.07 in1018.3 mb 0.00 in0.0 mm 0.00 in0.0 mm 0.07 in1.8 mm
09:25 PM 73.7°F23.2°C 72.5°F22.5°C 96% 2.5 mph SSW4.0 kmh SSW 7.0 mph11.3 kmh 30.08 in1018.6 mb 0.00 in0.0 mm 0.00 in0.0 mm 0.07 in1.8 mm
09:30 PM 73.6°F23.1°C 72.4°F22.4°C 96% 1.4 mph S2.3 kmh S 7.0 mph11.3 kmh 30.08 in1018.6 mb 0.00 in0.0 mm 0.00 in0.0 mm 0.07 in1.8 mm
09:34 PM 73.6°F23.1°C 72.4°F22.4°C 96% 1.4 mph SSW2.3 kmh SSW 7.0 mph11.3 kmh 30.08 in1018.6 mb 0.00 in0.0 mm 0.00 in0.0 mm 0.07 in1.8 mm
09:40 PM 73.4°F23.0°C 72.2°F22.3°C 96% 1.5 mph SSE2.4 kmh SSE 7.0 mph11.3 kmh 30.08 in1018.6 mb 0.00 in0.0 mm 0.00 in0.0 mm 0.07 in1.8 mm
09:45 PM 73.4°F23.0°C 72.2°F22.3°C 96% 1.6 mph SE2.6 kmh SE 4.0 mph6.4 kmh 30.09 in1019.0 mb 0.00 in0.0 mm 0.00 in0.0 mm 0.07 in1.8 mm
09:50 PM 73.2°F22.9°C 72.0°F22.2°C 96% 2.5 mph S4.0 kmh S 8.0 mph12.9 kmh 30.09 in1019.0 mb 0.00 in0.0 mm 0.00 in0.0 mm 0.07 in1.8 mm
09:55 PM 73.1°F22.8°C 71.9°F22.2°C 96% 2.7 mph S4.3 kmh S 8.0 mph12.9 kmh 30.09 in1019.0 mb 0.00 in0.0 mm 0.00 in0.0 mm 0.07 in1.8 mm
10:00 PM 72.9°F22.7°C 71.7°F22.1°C 96% 2.5 mph S4.0 kmh S 10.0 mph16.1 kmh 30.09 in1019.0 mb 0.00 in0.0 mm 0.00 in0.0 mm 0.07 in1.8 mm
10:04 PM 72.8°F22.7°C 71.6°F22.0°C 96% 2.5 mph S4.0 kmh S 10.0 mph16.1 kmh 30.10 in1019.3 mb 0.00 in0.0 mm 0.00 in0.0 mm 0.07 in1.8 mm
10:10 PM 72.7°F22.6°C 71.5°F21.9°C 96% 1.9 mph SSW3.1 kmh SSW 10.0 mph16.1 kmh 30.10 in1019.3 mb 0.00 in0.0 mm 0.00 in0.0 mm 0.07 in1.8 mm
10:15 PM 72.6°F22.6°C 71.4°F21.9°C 96% 1.8 mph S2.9 kmh S 8.0 mph12.9 kmh 30.10 in1019.3 mb 0.00 in0.0 mm 0.00 in0.0 mm 0.07 in1.8 mm
10:20 PM 72.4°F22.4°C 71.2°F21.8°C 96% 1.5 mph SSW2.4 kmh SSW 8.0 mph12.9 kmh 30.09 in1019.0 mb 0.00 in0.0 mm 0.00 in0.0 mm 0.07 in1.8 mm
10:25 PM 72.3°F22.4°C 71.1°F21.7°C 96% 1.9 mph SW3.1 kmh SW 8.0 mph12.9 kmh 30.10 in1019.3 mb 0.00 in0.0 mm 0.00 in0.0 mm 0.07 in1.8 mm
10:30 PM 72.2°F22.3°C 71.0°F21.7°C 96% 2.1 mph SW3.4 kmh SW 7.0 mph11.3 kmh 30.10 in1019.3 mb 0.00 in0.0 mm 0.00 in0.0 mm 0.07 in1.8 mm
10:35 PM 72.1°F22.3°C 70.9°F21.6°C 96% 1.0 mph W1.6 kmh W 5.0 mph8.0 kmh 30.10 in1019.3 mb 0.00 in0.0 mm 0.00 in0.0 mm 0.07 in1.8 mm
10:40 PM 72.0°F22.2°C 70.8°F21.6°C 96% 2.0 mph SW3.2 kmh SW 5.0 mph8.0 kmh 30.10 in1019.3 mb 0.00 in0.0 mm 0.00 in0.0 mm 0.07 in1.8 mm
10:45 PM 72.0°F22.2°C 70.8°F21.6°C 96% 2.0 mph SW3.2 kmh SW 4.0 mph6.4 kmh 30.09 in1019.0 mb 0.00 in0.0 mm 0.00 in0.0 mm 0.07 in1.8 mm
10:50 PM 71.9°F22.2°C 70.7°F21.5°C 96% 1.3 mph SW2.1 kmh SW 5.0 mph8.0 kmh 30.09 in1019.0 mb 0.00 in0.0 mm 0.00 in0.0 mm 0.07 in1.8 mm
10:55 PM 71.8°F22.1°C 70.6°F21.4°C 96% 1.5 mph WSW2.4 kmh WSW 5.0 mph8.0 kmh 30.09 in1019.0 mb 0.00 in0.0 mm 0.00 in0.0 mm 0.07 in1.8 mm
11:00 PM 71.7°F22.1°C 70.8°F21.6°C 97% 1.0 mph SW1.6 kmh SW 5.0 mph8.0 kmh 30.09 in1019.0 mb 0.00 in0.0 mm 0.00 in0.0 mm 0.07 in1.8 mm
11:05 PM 71.6°F22.0°C 70.7°F21.5°C 97% 1.0 mph SW1.6 kmh SW 3.0 mph4.8 kmh 30.08 in1018.6 mb 0.00 in0.0 mm 0.00 in0.0 mm 0.07 in1.8 mm
11:10 PM 71.5°F21.9°C 70.6°F21.4°C 97% 1.0 mph WSW1.6 kmh WSW 4.0 mph6.4 kmh 30.08 in1018.6 mb 0.00 in0.0 mm 0.00 in0.0 mm 0.07 in1.8 mm
11:15 PM 71.5°F21.9°C 70.6°F21.4°C 97% 1.9 mph WSW3.1 kmh WSW 4.0 mph6.4 kmh 30.07 in1018.3 mb 0.00 in0.0 mm 0.00 in0.0 mm 0.07 in1.8 mm
11:20 PM 71.5°F21.9°C 70.6°F21.4°C 97% 2.0 mph W3.2 kmh W 5.0 mph8.0 kmh 30.06 in1017.9 mb 0.00 in0.0 mm 0.00 in0.0 mm 0.07 in1.8 mm
11:25 PM 71.5°F21.9°C 70.6°F21.4°C 97% 1.8 mph WSW2.9 kmh WSW 5.0 mph8.0 kmh 30.06 in1017.9 mb 0.00 in0.0 mm 0.00 in0.0 mm 0.07 in1.8 mm
11:30 PM 71.4°F21.9°C 70.5°F21.4°C 97% 1.7 mph WSW2.7 kmh WSW 5.0 mph8.0 kmh 30.06 in1017.9 mb 0.00 in0.0 mm 0.00 in0.0 mm 0.07 in1.8 mm
11:35 PM 71.4°F21.9°C 70.5°F21.4°C 97% 1.3 mph WSW2.1 kmh WSW 5.0 mph8.0 kmh 30.06 in1017.9 mb 0.00 in0.0 mm 0.00 in0.0 mm 0.07 in1.8 mm
11:40 PM 71.4°F21.9°C 70.5°F21.4°C 97% 1.8 mph WNW2.9 kmh WNW 5.0 mph8.0 kmh 30.05 in1017.6 mb 0.00 in0.0 mm 0.00 in0.0 mm 0.07 in1.8 mm
11:45 PM 71.4°F21.9°C 70.5°F21.4°C 97% 1.4 mph W2.3 kmh W 6.0 mph9.7 kmh 30.05 in1017.6 mb 0.00 in0.0 mm 0.00 in0.0 mm 0.07 in1.8 mm
11:50 PM 71.5°F21.9°C 70.6°F21.4°C 97% 2.2 mph WNW3.5 kmh WNW 7.0 mph11.3 kmh 30.05 in1017.6 mb 0.00 in0.0 mm 0.00 in0.0 mm 0.07 in1.8 mm
11:55 PM 71.4°F21.9°C 70.5°F21.4°C 97% 1.8 mph W2.9 kmh W 7.0 mph11.3 kmh 30.04 in1017.3 mb 0.00 in0.0 mm 0.00 in0.0 mm 0.07 in1.8 mm